Tiempo atmosférico en la estación meteorológica de Estaca De Bares, A Coruña (80 m.)

Fecha
DESCASC
Temp. máxima en grados centígrados (hora)
DESCASC
Temp. mínima en grados centígrados (hora)
DESCASC
Temp. media en grados centígrados
DESCASC
Racha de viento máxima en m/sg (hora)
DESCASC
Velocidad máxima media en intervalos de 10 minutos(hora)
DESCASC
Precipitaciones diarias en mm
DESCASC
Precipitaciones de 00:00 a 06:00 en mm
DESCASC
Precipitaciones de 06:00 a 12:00 en mm
DESCASC
Precipitaciones de 12:00 a 18:00 en mm
DESCASC
Precipitaciones de 18:00 a 24:00 en mm
DESCASC
23-11-2017 20.3 (14:50) 13.6 (23:59) 16.9 24.17 (16:30) 16.67 (15:30) 0.2 0 0 0 0.2
22-11-2017 22 (14:50) 13.3 (00:20) 17.7 33.89 (17:00) 23.61 (17:50) 1.8 0 0 0 1.8
21-11-2017 20.4 (14:10) 12.5 (06:10) 16.4 11.11 (15:40) 7.78 (23:20) 0 0 0 0 0
20-11-2017 19.5 (15:50) 10.7 (02:40) 15.1 7.22 (00:10) 5.28 (00:10) 0 0 0 0 0
19-11-2017 13.6 (00:10) 10.8 (00:00) 12.2 16.11 (00:40) 12.5 (00:40) 0 0 0 0 0
18-11-2017 15.3 (14:20) 12.4 (00:00) 13.8 15.56 (23:59) 12.22 (20:50) 0 0 0 0 0
17-11-2017 15.8 (14:20) 12.9 (00:00) 14.3 15 (22:10) 11.11 (22:20) 0 0 0 0 0
16-11-2017 16.2 (12:30) 10.6 (00:00) 13.4 7.22 (20:10) 5 (19:50) 0 0 0 0 0
15-11-2017 15.2 (14:50) 10.7 (00:00) 12.9 19.44 (00:10) 15.56 (02:10) 0 0 0 0 0
14-11-2017 14.2 (13:30) 12 (00:00) 13.1 20.83 (19:00) 15.28 (20:10) 0 0 0 0 0
13-11-2017 14.3 (13:00) 12.3 (00:00) 13.3 17.78 (23:40) 13.61 (21:00) 0.2 0.2 0 0 0
12-11-2017 15 (15:10) 12.7 (00:00) 13.8 15.83 (11:50) 12.78 (11:50) 1.4 0.6 0 0.6 0.2
11-11-2017 16.5 (14:50) 12.7 (00:00) 14.6 11.94 (21:50) 8.61 (21:50) 0.4 0 0 0 0.4
10-11-2017 14.8 (14:50) 12.8 (00:00) 13.8 11.67 (06:50) 7.5 (11:10) 1.6 1.2 0.4 0 0
09-11-2017 14.2 (14:50) 10.5 (00:00) 12.3 9.17 (19:50) 5.83 (01:00) 5.6 2.2 2 1 0.4
08-11-2017 14.7 (14:00) 11.4 (00:00) 13 14.72 (15:10) 9.17 (15:10) 0.8 0 0.2 0.6 0
07-11-2017 14.7 (12:20) 10 (00:00) 12.3 19.17 (13:10) 15 (13:10) 2 0 0 0.6 1.4
06-11-2017 15.7 (13:10) 10.7 (00:00) 13.2 9.44 (02:00) 5.28 (15:10) 0.2 0.2 0 0 0
05-11-2017 15.8 (14:10) 11.8 (00:00) 13.8 13.33 (01:20) 9.72 (05:50) 2.2 0 1 0.2 1
04-11-2017 18.3 (13:20) 13.4 (00:00) 15.8 15 (15:10) 10.28 (15:10) 11 0 9 2 0
03-11-2017 17.8 (15:30) 14.5 (00:00) 16.1 10 (01:30) 7.5 (01:20) 1.2 0 1.2 0 0
02-11-2017 19 (01:30) 14.3 (12:40) 16.7 12.78 (11:10) 10 (11:20) 3 1 1.8 0.2 0
01-11-2017 20.2 (16:00) 14.6 (00:00) 17.4 6.67 (14:30) 5 (21:20) 0 0 0 0 0
31-10-2017 15.5 (13:10) 13 (00:00) 14.3 19.72 (02:30) 15 (02:30) 0 0 0 0 0
30-10-2017 17 (15:20) 14 (00:00) 15.5 21.11 (21:20) 15.83 (21:20) 0.6 0.4 0.2 0 0
29-10-2017 16.9 (14:40) 15.2 (00:00) 16 14.44 (22:00) 12.5 (22:00) 0 0 0 0 0
28-10-2017 18.3 (12:50) 15.9 (00:00) 17.1 13.61 (08:00) 10 (08:00) 0 0 0 0 0
27-10-2017 19.2 (14:30) 16.3 (00:00) 17.8 12.78 (20:20) 10.56 (20:10) 0 0 0 0 0
26-10-2017 22.7 (17:10) 15.7 (00:00) 19.2 13.33 (04:00) 10.83 (03:50) 0 0 0 0 0
25-10-2017 20.4 (12:30) 13.6 (00:00) 17 8.89 (17:40) 7.78 (18:40) 0 0 0 0 0

Gráficas

Temp. máximas Temp. mínimas Temp. medias Precipitaciones Rachas de viento máximas Velocidades máximas media en intervalos de 10 minutos

Datos horarios

Fecha y hora oficial Temperatura (ºC) Velocidad del viento (km/h) Dirección del viento Racha (km/h) Dirección de racha Precipitación (mm) Presión (hPa) Tendencia (hPa) Humedad (%)
2017-11-23 23:00:00 14.4 24 Oeste 42 Oeste 0 1002.6 2 85
2017-11-23 22:00:00 14.5 39 Oeste 61 Oeste 0 1002.2 2.3 85
2017-11-23 21:00:00 14.3 46 Oeste 60 Oeste 0 1001.1 1.9 89
2017-11-23 20:00:00 14.3 48 Oeste 65 Oeste 0 1000.6 2 86
2017-11-23 19:00:00 16.2 46 Oeste 69 Oeste 0 999.9 1.5 72
2017-11-23 18:00:00 17.6 50 Oeste 67 Oeste 0 999.2 1.2 64
2017-11-23 17:00:00 19.2 56 Oeste 87 Oeste 0 998.6 0.4 55
2017-11-23 16:00:00 19.3 46 Oeste 73 Oeste 0 998.4 0 56
2017-11-23 15:00:00 20 54 Oeste 69 Oeste 0 998 -1.1 52
2017-11-23 14:00:00 19.8 45 Oeste 68 Oeste 0 998.2 -0.4 55
2017-11-23 13:00:00 19.6 35 Oeste 58 Sudoeste 0 998.4 -0.1 55
2017-11-23 12:00:00 18.1 40 Sudoeste 57 Oeste 0 999.1 1 60
2017-11-23 11:00:00 17 42 Sudoeste 57 Sudoeste 0 998.6 1.2 64
2017-11-23 10:00:00 15.9 27 Sudoeste 48 Oeste 0 998.5 1.9 72
2017-11-23 09:00:00 15.1 32 Oeste 45 Sudoeste 0 998.1 2.4 76
2017-11-23 08:00:00 15.1 39 Sudoeste 48 Oeste 0 997.4 2.7 77
2017-11-23 07:00:00 15 41 Sudoeste 50 Sudoeste 0 996.6 2.6 77
2017-11-23 06:00:00 15.1 38 Oeste 52 Oeste 0 995.7 2.3 79
2017-11-23 05:00:00 15.2 46 Oeste 55 Oeste 0 994.7 2.2 79
2017-11-23 04:00:00 15.2 44 Oeste 54 Oeste 0 994 1.5 80
2017-11-23 03:00:00 15.1 40 Oeste 57 Oeste 0 993.4 1.5 78
2017-11-23 02:00:00 15.4 52 Oeste 64 Oeste 0 992.5 1 76
2017-11-23 01:00:00 15.8 55 Oeste 70 Oeste 0 992.5 1.4 73
2017-11-23 00:00:00 15.9 60 Oeste 74 Oeste 0 991.9 1.1 75
2017-11-22 23:00:00 16.1 57 Oeste 72 Oeste 0 991.5 1.5 76
2017-11-22 22:00:00 15.9 53 Sudoeste 73 Sudoeste 0 991.1 0.8 79
2017-11-22 21:00:00 15.7 43 Sudoeste 80 Sudoeste 0 990.8 0.9 78
2017-11-22 20:00:00 15.1 55 Sudoeste 90 Sudoeste 0.6 990 2.5 77
2017-11-22 19:00:00 14.4 55 Oeste 119 Sudoeste 1.2 990.3 1.8 81
2017-11-22 18:00:00 16.8 71 Oeste 113 Oeste 0 989.9 0.2 56
2017-11-22 17:00:00 19.8 82 Oeste 122 Oeste 0 987.5 -4.5 37
2017-11-22 16:00:00 21.6 53 Sudoeste 103 Sudoeste 0 988.5 -4.6 26
2017-11-22 15:00:00 21.5 44 Sudoeste 100 Sudoeste 0 989.7 -3.8 30
2017-11-22 14:00:00 20.6 37 Oeste 88 Oeste 0 992 -2.2 37
2017-11-22 13:00:00 20 57 Sudoeste 85 Oeste 0 993.1 -1.1 34
2017-11-22 12:00:00 19.6 43 Sudoeste 75 Oeste 0 993.5 -0.2 33
2017-11-22 11:00:00 18.9 44 Sudoeste 81 Sudoeste 0 994.2 -0.2 34
2017-11-22 10:00:00 18.7 49 Sudoeste 77 Sudoeste 0 994.2 -1.4 29
2017-11-22 09:00:00 18.1 54 Sudoeste 81 Sudoeste 0 993.7 -3.4 28
2017-11-22 08:00:00 18.1 44 Sudoeste 76 Sudoeste 0 994.4 -3.6 28
2017-11-22 07:00:00 18 41 Sudoeste 61 Sudoeste 0 995.6 -3 29
2017-11-22 06:00:00 17 28 Sur 37 Sur 0 997.1 -2 32
2017-11-22 05:00:00 15.9 11 Este 25 Noroeste 0 998 -2.2 40
2017-11-22 04:00:00 16.6 15 Sur 30 Sur 0 998.6 -3 33
2017-11-22 03:00:00 16.2 22 Sur 40 Sur 0 999.1 -3.1 33
2017-11-22 02:00:00 15.3 22 Sur 30 Sur 0 1000.2 -2.5 35
2017-11-22 01:00:00 13.9 18 Sudoeste 25 Sudoeste 0 1001.6 -1.4 46
2017-11-22 00:00:00 13.8 22 Oeste 34 Oeste 0 1002.2 -1.1 52
2017-11-21 23:00:00 13.9 19 Oeste 21 Oeste 0 1002.7 -1.4 54
2017-11-21 22:00:00 15.6 9 Oeste 31 Sur 0 1003 -1.3 39
2017-11-21 21:00:00 17.3 24 Sur 31 Sur 0 1003.3 -1.1 30
2017-11-21 20:00:00 17.3 2 Sur 15 Sudoeste 0 1004.1 -0.7 31
2017-11-21 19:00:00 18.3 14 Sudoeste 27 Sudoeste 0 1004.3 -0.6 28
2017-11-21 18:00:00 18.6 17 Sudoeste 24 Sudoeste 0 1004.4 -0.8 30
2017-11-21 17:00:00 18.5 5 Sudoeste 15 Oeste 0 1004.8 -1.2 39
2017-11-21 16:00:00 20 15 Oeste 40 Sudoeste 0 1004.9 -1.9 38
2017-11-21 15:00:00 19 17 Sudoeste 27 Sudoeste 0 1005.2 -2.6 41
2017-11-21 14:00:00 20.3 17 Sudoeste 28 Oeste 0 1006 -1.8 31
2017-11-21 13:00:00 17.8 7 Oeste 24 Oeste 0 1006.8 -1.5 42
2017-11-21 12:00:00 16.8 17 Oeste 23 Oeste 0 1007.8 -0.5 54
2017-11-21 11:00:00 14.9 14 Sudoeste 19 Sudoeste 0 1007.8 -0.6 43
2017-11-21 10:00:00 14.6 5 Sudoeste 17 Sur 0 1008.3 -0.2 52
2017-11-21 09:00:00 14.1 12 Sur 21 Sur 0 1008.3 -0.3 40
2017-11-21 08:00:00 13.8 4 Sudoeste 10 Sudoeste 0 1008.4 -0.1 42
2017-11-21 07:00:00 12.5 7 Sudoeste 11 Oeste 0 1008.5 -0.3 48
2017-11-21 06:00:00 12.7 7 Sudoeste 10 Sudoeste 0 1008.6 -0.2 50
2017-11-21 05:00:00 13.5 3 Sudoeste 14 Sudoeste 0 1008.5 -0.5 46
2017-11-21 04:00:00 13.9 9 Sudoeste 12 Sudoeste 0 1008.8 -0.7 47
2017-11-21 03:00:00 14 5 Este 14 Sur 0 1008.8 -0.8 45
2017-11-21 02:00:00 13.9 10 Sur 14 Sur 0 1009 -0.8 46
2017-11-21 01:00:00 14.3 3 Sur 12 Sur 0 1009.5 -0.7 44
2017-11-21 00:00:00 13.7 6 Sur 16 Sur 0 1009.6 -0.9 47
2017-11-20 23:00:00 13.5 13 Sur 16 Sur 0 1009.8 -0.8 48
2017-11-20 22:00:00 14.1 11 Sur 18 Sur 0 1010.2 -0.1 48
2017-11-20 21:00:00 13.9 12 Sur 14 Sur 0 1010.5 0.6 54
2017-11-20 20:00:00 14.9 2 Norte 8 Sudeste 0 1010.6 0.8 54
2017-11-20 19:00:00 14.6 5 Sudoeste 13 Oeste 0 1010.3 0.7 53
2017-11-20 18:00:00 15.1 9 Oeste 12 Oeste 0 1009.9 -0.1 57
2017-11-20 17:00:00 17.4 7 Oeste 11 Oeste 0 1009.8 -0.4 49
2017-11-20 16:00:00 19.1 6 Oeste 11 Sudoeste 0 1009.6 -1.2 44
2017-11-20 15:00:00 18.1 5 Oeste 12 Oeste 0 1010 -1.3 44
2017-11-20 14:00:00 17.8 8 Oeste 11 Oeste 0 1010.2 -1.2 46
2017-11-20 13:00:00 17.8 6 Oeste 14 Sudoeste 0 1010.8 -0.6 36
2017-11-20 12:00:00 17.4 4 Sudoeste 19 Sur 0 1011.3 0.4 40
2017-11-20 11:00:00 16.4 12 Sur 17 Sur 0 1011.4 1 38
2017-11-20 10:00:00 15 11 Sur 16 Sur 0 1011.4 1 40
2017-11-20 09:00:00 13.3 4 Sudoeste 14 Sudoeste 0 1010.9 0.6 48
2017-11-20 08:00:00 12 3 Oeste 10 Oeste 0 1010.4 0.2 64
2017-11-20 07:00:00 12.6 5 Sudoeste 7 Sur 0 1010.4 0.1 59
2017-11-20 06:00:00 12.9 4 Sudoeste 8 Sudoeste 0 1010.3 -0.1 59
2017-11-20 05:00:00 12.5 5 Sudoeste 16 Sur 0 1010.2 -0.9 63
2017-11-20 04:00:00 11.8 17 Sur 22 Sur 0 1010.3 -1.2 60
2017-11-20 03:00:00 11.8 13 Sudeste 25 Sudeste 0 1010.4 -1.2 72
2017-11-20 02:00:00 12.1 6 Sudoeste 21 Sur 0 1011.1 -0.8 68
2017-11-20 01:00:00 12.1 13 Sudeste 26 Sudeste 0 1011.5 -0.1 76
2017-11-20 00:00:00 12.3 21 Sudeste 31 Sudeste 0 1011.6 0.6 76
2017-11-19 23:00:00 12.1 21 Sudeste 27 Sudeste 0 1011.9 0.6 76
2017-11-19 22:00:00 12.5 21 Sudeste 27 Sudeste 0 1011.6 0.4 71
2017-11-19 21:00:00 11.8 21 Sudeste 30 Sudeste 0 1011 0.2 77
2017-11-19 20:00:00 12.4 15 Sudeste 36 Sudeste 0 1011.3 0.6 73
2017-11-19 19:00:00 12.6 26 Sudeste 41 Sudeste 0 1011.2 0.7 73
2017-11-19 18:00:00 12.8 32 Sudeste 41 Sudeste 0 1010.8 0.1 71
2017-11-19 17:00:00 13.4 33 Sudeste 46 Sudeste 0 1010.7 -0.8 70
2017-11-19 16:00:00 13.5 37 Sudeste 51 Sudeste 0 1010.5 -1.4 70
2017-11-19 15:00:00 13.5 43 Sudeste 51 Sudeste 0 1010.7 -1.3 69
2017-11-19 14:00:00 13.6 36 Sudeste 48 Sudeste 0 1011.5 -0.6 66
2017-11-19 13:00:00 13.4 35 Sudeste 50 Sudeste 0 1011.9 -0.3 68
2017-11-19 12:00:00 13.2 41 Sudeste 51 Sudeste 0 1012 0.3 66
2017-11-19 11:00:00 12.6 32 Sudeste 45 Sudeste 0 1012.1 1 71
2017-11-19 10:00:00 11.8 33 Sudeste 43 Sudeste 0 1012.2 1.6 73
2017-11-19 09:00:00 11.2 34 Sudeste 45 Sudeste 0 1011.7 1.1 75
2017-11-19 08:00:00 11.1 33 Sudeste 46 Sudeste 0 1011.1 0.2 78
2017-11-19 07:00:00 11.5 35 Sudeste 43 Sudeste 0 1010.6 -0.6 80
2017-11-19 06:00:00 11.6 31 Sudeste 40 Sudeste 0 1010.6 -0.5 79
2017-11-19 05:00:00 11.8 30 Sudeste 42 Sudeste 0 1010.9 -0.2 79
2017-11-19 04:00:00 12.2 32 Sudeste 46 Sudeste 0 1011.2 -0.2 80
2017-11-19 03:00:00 12.4 32 Sudeste 47 Sudeste 0 1011.1 0.1 80
2017-11-19 02:00:00 12.9 34 Sudeste 46 Este 0 1011.1 -0.2 78
2017-11-19 01:00:00 13.5 44 Este 58 Este 0 1011.4 0.4 77
2017-11-19 00:00:00 13.5 44 Este 56 Este 0 1011 -0.3 77
2017-11-18 23:00:00 13.6 34 Este 53 Este 0 1011.3 0.1 77
2017-11-18 22:00:00 13.8 42 Este 53 Este 0 1011 -0.6 76
2017-11-18 21:00:00 13.7 41 Este 55 Este 0 1011.3 -0.3 76
2017-11-18 20:00:00 13.7 40 Este 53 Este 0 1011.2 -0.8 76
2017-11-18 19:00:00 13.7 38 Este 54 Este 0 1011.6 0 75
2017-11-18 18:00:00 13.8 36 Este 49 Este 0 1011.6 0.1 74
2017-11-18 17:00:00 14.2 32 Este 47 Este 0 1012 0.2 74
2017-11-18 16:00:00 14.7 29 Este 46 Este 0 1011.6 -0.7 71
2017-11-18 15:00:00 14.5 30 Este 49 Este 0 1011.5 -1.3 72
2017-11-18 14:00:00 14.8 35 Este 48 Este 0 1011.8 -0.7 70
2017-11-18 13:00:00 14.6 32 Sudeste 41 Sudeste 0 1012.3 -0.4 72
2017-11-18 12:00:00 14.3 30 Sudeste 46 Este 0 1012.8 0.6 76
2017-11-18 11:00:00 13.9 37 Este 49 Este 0 1012.5 0.7 76
2017-11-18 10:00:00 13.7 31 Sudeste 41 Este 0 1012.7 1.1 78
2017-11-18 09:00:00 12.6 25 Sudeste 36 Sudeste 0 1012.2 0.8 79
2017-11-18 08:00:00 12.5 29 Sudeste 39 Sudeste 0 1011.8 -0.1 79
2017-11-18 07:00:00 12.8 28 Sudeste 42 Sudeste 0 1011.6 -0.5 79
2017-11-18 06:00:00 13.4 33 Sudeste 44 Sudeste 0 1011.4 -0.5 79
2017-11-18 05:00:00 13.6 32 Este 45 Este 0 1011.9 0 79
2017-11-18 04:00:00 13.8 30 Este 43 Este 0 1012.1 -0.1 77
2017-11-18 03:00:00 13.8 33 Este 47 Este 0 1011.9 -0.5 74
2017-11-18 02:00:00 13.8 36 Este 45 Este 0 1011.9 -0.5 74
2017-11-18 01:00:00 14.1 37 Este 49 Este 0 1012.2 0 75
2017-11-18 00:00:00 14 35 Este 49 Este 0 1012.4 0.5 74
2017-11-17 23:00:00 14.1 33 Este 54 Este 0 1012.4 0.6 74
2017-11-17 22:00:00 14.5 38 Este 47 Este 0 1012.2 0.1 74
2017-11-17 21:00:00 14.3 33 Este 49 Este 0 1011.9 0.1 76
2017-11-17 20:00:00 14.5 33 Este 44 Este 0 1011.8 0.1 68
2017-11-17 19:00:00 14.3 32 Este 43 Este 0 1012.1 0.4 70
2017-11-17 18:00:00 14.2 31 Este 42 Este 0 1011.8 0 71
2017-11-17 17:00:00 14.3 25 Este 36 Este 0 1011.7 -0.2 71
2017-11-17 16:00:00 14.6 27 Sudeste 35 Este 0 1011.7 -0.4 69
2017-11-17 15:00:00 14.8 24 Este 32 Sudeste 0 1011.8 -0.8 69
2017-11-17 14:00:00 15.5 23 Este 37 Este 0 1011.9 -0.8 66
2017-11-17 13:00:00 15.2 24 Este 32 Este 0 1012.1 -0.5 68
2017-11-17 12:00:00 15 25 Este 30 Este 0 1012.6 0.1 70
2017-11-17 11:00:00 14.1 19 Este 26 Sudeste 0 1012.7 0.5 73
2017-11-17 10:00:00 14 19 Sudeste 25 Sudeste 0 1012.6 0.9 70
2017-11-17 09:00:00 13.2 19 Sudeste 28 Sudeste 0 1012.5 0.7 72
2017-11-17 08:00:00 12.9 19 Sudeste 27 Sudeste 0 1012.2 0.4 72
2017-11-17 07:00:00 13.1 17 Sudeste 24 Sudeste 0 1011.7 -0.2 73
2017-11-17 06:00:00 13.2 15 Sudeste 21 Este 0 1011.8 -0.1 74
2017-11-17 05:00:00 13.3 15 Sudeste 21 Sudeste 0 1011.8 -0.3 73
2017-11-17 04:00:00 13.4 13 Sudeste 20 Sudeste 0 1011.9 -0.5 73
2017-11-17 03:00:00 13.3 13 Sudeste 19 Sudeste 0 1011.9 -0.3 74
2017-11-17 02:00:00 13.3 15 Este 19 Este 0 1012.1 -0.1 74
2017-11-17 01:00:00 13.4 14 Este 20 Este 0 1012.4 0.2 76
2017-11-17 00:00:00 13.4 17 Sudeste 21 Este 0 1012.2 0.2 74
2017-11-16 23:00:00 13.2 16 Este 23 Este 0 1012.2 0.3 74
2017-11-16 22:00:00 13.6 14 Este 19 Este 0 1012.2 0.5 74
2017-11-16 21:00:00 13.5 14 Este 26 Este 0 1012 0.6 76
2017-11-16 20:00:00 13.6 17 Este 23 Este 0 1011.9 0.7 75
2017-11-16 19:00:00 13.4 18 Este 21 Este 0 1011.7 0.6 77
2017-11-16 18:00:00 13.3 13 Este 17 Este 0 1011.4 0.1 76
2017-11-16 17:00:00 14.7 9 Este 15 Este 0 1011.2 -0.2 73
2017-11-16 16:00:00 15.2 9 Este 13 Este 0 1011.1 -0.5 71
2017-11-16 15:00:00 15.7 5 Este 8 Nordeste 0 1011.3 -0.5 69
2017-11-16 14:00:00 16 3 Nordeste 7 Nordeste 0 1011.4 -0.1 70
2017-11-16 13:00:00 15.6 5 Este 7 Nordeste 0 1011.6 0.4 70
2017-11-16 12:00:00 15.6 3 Nordeste 7 Noroeste 0 1011.8 1.1 70
2017-11-16 11:00:00 15.1 2 Nordeste 4 Sudoeste 0 1011.5 1.4 75
2017-11-16 10:00:00 12.9 5 Sudoeste 9 Oeste 0 1011.2 1.4 80
2017-11-16 09:00:00 12.6 4 Oeste 8 Sudoeste 0 1010.7 1.4 81
2017-11-16 08:00:00 12 6 Sudoeste 10 Oeste 0 1010.1 1.1 79
2017-11-16 07:00:00 11.8 9 Oeste 10 Oeste 0 1009.8 0.6 78
2017-11-16 06:00:00 11.8 6 Oeste 10 Oeste 0 1009.3 0.2 78
2017-11-16 05:00:00 12 7 Sudoeste 11 Oeste 0 1009 -0.1 75
2017-11-16 04:00:00 11.3 8 Sudoeste 12 Oeste 0 1009.2 0.2 79
2017-11-16 03:00:00 11.8 7 Oeste 11 Oeste 0 1009.1 0.1 75
2017-11-16 02:00:00 11.5 10 Oeste 13 Oeste 0 1009.1 -0.2 73
2017-11-16 01:00:00 11.3 9 Oeste 12 Oeste 0 1009 -0.4 73
2017-11-16 00:00:00 11.8 5 Sudoeste 6 Oeste 0 1009 -0.2 69
2017-11-15 23:00:00 12 4 Oeste 6 Oeste 0 1009.3 0.1 64
2017-11-15 22:00:00 12.2 3 Oeste 4 Oeste 0 1009.4 0.4 64
2017-11-15 21:00:00 12.6 3 Sudeste 8 Sur 0 1009.2 0.3 59
2017-11-15 20:00:00 12.5 8 Sur 10 Sur 0 1009.2 0.4 59
2017-11-15 19:00:00 12.1 9 Sudeste 12 Sudeste 0 1009 0.5 62
2017-11-15 18:00:00 12.7 7 Sudeste 12 Sudeste 0 1008.9 0.3 61
2017-11-15 17:00:00 14.1 10 Sudeste 15 Sudeste 0 1008.8 0 58
2017-11-15 16:00:00 14.7 12 Sudeste 15 Sudeste 0 1008.5 -0.8 58
2017-11-15 15:00:00 14.9 11 Este 17 Este 0 1008.6 -1.3 57
2017-11-15 14:00:00 14.3 14 Este 21 Este 0 1008.8 -1 58
2017-11-15 13:00:00 13.5 19 Este 22 Sudeste 0 1009.3 -0.1 63
2017-11-15 12:00:00 13.5 16 Sudeste 24 Sudeste 0 1009.9 0.7 61
2017-11-15 11:00:00 13.2 18 Sudeste 26 Sudeste 0 1009.8 1.2 60
2017-11-15 10:00:00 12.3 15 Sudeste 31 Sudeste 0 1009.4 1.1 62
2017-11-15 09:00:00 11 22 Sudeste 39 Sudeste 0 1009.2 0.9 66
2017-11-15 08:00:00 10.8 28 Sudeste 40 Sudeste 0 1008.6 0.2 67
2017-11-15 07:00:00 10.8 29 Sudeste 49 Sudeste 0 1008.3 -0.2 64
2017-11-15 06:00:00 10.9 32 Sudeste 47 Sudeste 0 1008.3 -0.3 65
2017-11-15 05:00:00 11.1 32 Sudeste 46 Sudeste 0 1008.4 -0.1 65
2017-11-15 04:00:00 11.5 35 Sudeste 60 Sudeste 0 1008.5 -0.5 64
2017-11-15 03:00:00 11.9 39 Sudeste 68 Sudeste 0 1008.6 -0.5 63
2017-11-15 02:00:00 12.5 51 Este 69 Sudeste 0 1008.5 -1.2 57
2017-11-15 01:00:00 12.5 53 Este 70 Este 0 1009 -0.9 61
2017-11-15 00:00:00 12.5 54 Este 71 Sudeste 0 1009.1 -0.6 61
2017-11-14 23:00:00 12.7 50 Este 66 Este 0 1009.7 -0.2 65
2017-11-14 22:00:00 12.9 48 Este 68 Este 0 1009.9 -0.1 68
2017-11-14 21:00:00 12.8 50 Este 72 Este 0 1009.7 -0.3 66
2017-11-14 20:00:00 12.9 51 Este 69 Este 0 1009.9 -0.8 68
2017-11-14 19:00:00 13 53 Este 75 Este 0 1010 -1 66
2017-11-14 18:00:00 13.2 53 Este 69 Este 0 1010 -1.2 65
2017-11-14 17:00:00 13.6 45 Este 66 Este 0 1010.7 -1.2 63
2017-11-14 16:00:00 13.9 47 Este 66 Este 0 1011 -1.6 63
2017-11-14 15:00:00 14 45 Este 64 Este 0 1011.2 -2.1 60
2017-11-14 14:00:00 14 48 Este 65 Este 0 1011.9 -1.8 59
2017-11-14 13:00:00 13.9 45 Este 63 Sudeste 0 1012.6 -1 58
2017-11-14 12:00:00 13.8 44 Este 62 Este 0 1013.3 -0.3 59
2017-11-14 11:00:00 13.6 42 Este 62 Sudeste 0 1013.7 0.1 59
2017-11-14 10:00:00 13.3 39 Este 55 Este 0 1013.6 0 59
2017-11-14 09:00:00 12.5 38 Este 51 Este 0 1013.6 0.2 61
2017-11-14 08:00:00 12 36 Este 52 Este 0 1013.6 0.1 63
2017-11-14 07:00:00 12.2 33 Este 52 Este 0 1013.6 -0.3 62
2017-11-14 06:00:00 12.3 35 Este 52 Este 0 1013.4 -1.1 61
2017-11-14 05:00:00 12.4 36 Este 55 Este 0 1013.5 -0.8 61
2017-11-14 04:00:00 12.5 34 Este 49 Este 0 1013.9 -0.7 66
2017-11-14 03:00:00 12.5 34 Este 50 Este 0 1014.5 -0.6 66
2017-11-14 02:00:00 12.8 37 Este 56 Este 0 1014.3 -0.9 62
2017-11-14 01:00:00 12.8 42 Este 60 Este 0 1014.6 -1 58
2017-11-14 00:00:00 12.9 41 Este 64 Este 0 1015.1 -0.2 57
2017-11-13 23:00:00 12.7 48 Este 60 Este 0 1015.2 -0.8 55
2017-11-13 22:00:00 12.9 43 Este 59 Este 0 1015.6 -0.5 54
2017-11-13 21:00:00 12.8 49 Este 60 Este 0 1015.3 -0.3 57
2017-11-13 20:00:00 12.8 40 Este 53 Este 0 1016 0.5 58
2017-11-13 19:00:00 12.7 35 Este 52 Este 0 1016.1 0.4 52
2017-11-13 18:00:00 12.7 40 Este 50 Este 0 1015.6 -0.3 55
2017-11-13 17:00:00 13 41 Este 53 Este 0 1015.5 -0.9 60
2017-11-13 16:00:00 13.5 35 Este 50 Este 0 1015.7 -1.1 53
2017-11-13 15:00:00 13.8 38 Este 53 Este 0 1015.9 -1.3 56
2017-11-13 14:00:00 13.2 33 Nordeste 44 Nordeste 0 1016.4 -0.6 60
2017-11-13 13:00:00 14.2 34 Este 43 Este 0 1016.8 0.1 57
2017-11-13 12:00:00 14 30 Este 47 Nordeste 0 1017.2 0.9 54
2017-11-13 11:00:00 13.3 35 Este 49 Nordeste 0 1017 1.2 61
2017-11-13 10:00:00 13.2 37 Este 47 Este 0 1016.7 1 60
2017-11-13 09:00:00 12.9 32 Nordeste 49 Este 0 1016.3 0.5 62
2017-11-13 08:00:00 12.5 32 Este 51 Este 0 1015.8 0 62
2017-11-13 07:00:00 12.9 34 Este 46 Este 0 1015.7 -0.3 67
2017-11-13 06:00:00 12.6 26 Nordeste 42 Nordeste 0 1015.8 -0.1 67
2017-11-13 05:00:00 12.7 28 Nordeste 43 Este 0 1015.8 0.1 66
2017-11-13 04:00:00 12.8 36 Nordeste 45 Nordeste 0 1016 0.3 66
2017-11-13 03:00:00 12.8 30 Nordeste 41 Nordeste 0 1015.9 0.7 70
2017-11-13 02:00:00 13 28 Nordeste 46 Nordeste 0 1015.7 0.4 73
2017-11-13 01:00:00 13.3 25 Nordeste 49 Nordeste 0.2 1015.7 0.9 77
2017-11-13 00:00:00 13.7 29 Nordeste 46 Nordeste 0 1015.2 0.5 82
2017-11-12 23:00:00 13.8 12 Nordeste 34 Nordeste 0 1015.3 1.1 87
2017-11-12 22:00:00 14.3 17 Norte 35 Nordeste 0 1014.8 0.6 87
2017-11-12 21:00:00 14 11 Norte 22 Nordeste 0.2 1014.7 1.2 89
2017-11-12 20:00:00 14.4 11 Noroeste 24 Norte 0 1014.2 0.7 87
2017-11-12 19:00:00 13.9 9 Oeste 18 Oeste 0 1014.2 0.9 92
2017-11-12 18:00:00 13.8 17 Oeste 19 Oeste 0 1013.5 0.7 91
2017-11-12 17:00:00 14.3 12 Noroeste 22 Oeste 0 1013.5 0.4 90
2017-11-12 16:00:00 14.7 22 Oeste 47 Oeste 0.4 1013.3 0.5 91
2017-11-12 15:00:00 14.8 29 Oeste 35 Oeste 0 1012.8 -0.4 91
2017-11-12 14:00:00 14.2 31 Oeste 55 Oeste 0.2 1013.1 -0.2 92
2017-11-12 13:00:00 14.1 44 Oeste 52 Oeste 0 1012.8 -0.9 88
2017-11-12 12:00:00 14 42 Oeste 57 Oeste 0 1013.2 -0.3 87
2017-11-12 11:00:00 13.5 43 Oeste 50 Oeste 0 1013.3 -0.3 87
2017-11-12 10:00:00 13.7 37 Oeste 49 Oeste 0 1013.7 -0.6 84
2017-11-12 09:00:00 13.3 42 Oeste 51 Oeste 0 1013.5 -0.9 83
2017-11-12 08:00:00 13 39 Oeste 47 Oeste 0 1013.6 -1.1 86
2017-11-12 07:00:00 12.9 36 Oeste 44 Sudoeste 0 1014.3 -0.8 86
2017-11-12 06:00:00 12.9 35 Oeste 43 Sudoeste 0 1014.4 -1 87
2017-11-12 05:00:00 12.8 36 Oeste 44 Oeste 0.2 1014.7 -1.1 91
2017-11-12 04:00:00 13 35 Oeste 46 Oeste 0 1015.1 -1.4 91
2017-11-12 03:00:00 13 40 Oeste 48 Oeste 0.2 1015.4 -1.6 91
2017-11-12 02:00:00 12.9 30 Oeste 39 Oeste 0 1015.8 -1.6 91
2017-11-12 01:00:00 12.9 28 Oeste 34 Oeste 0.2 1016.5 -1.2 92
2017-11-12 00:00:00 12.9 26 Oeste 31 Oeste 0 1017 -0.7 91
2017-11-11 23:00:00 13.1 22 Oeste 30 Oeste 0 1017.4 -0.3 90
2017-11-11 22:00:00 13.4 26 Oeste 43 Noroeste 0.4 1017.7 -0.2 88
2017-11-11 21:00:00 13.4 25 Oeste 32 Oeste 0 1017.7 -0.4 85
2017-11-11 20:00:00 13.8 23 Oeste 27 Sudoeste 0 1017.7 -0.7 81
2017-11-11 19:00:00 13.8 21 Oeste 28 Oeste 0 1017.9 -0.9 82
2017-11-11 18:00:00 14 22 Oeste 25 Oeste 0 1018.1 -1 84
2017-11-11 17:00:00 14.3 18 Oeste 31 Oeste 0 1018.4 -1.4 82
2017-11-11 16:00:00 14.7 20 Oeste 30 Oeste 0 1018.8 -1.6 82
2017-11-11 15:00:00 15.7 18 Oeste 23 Oeste 0 1019.1 -1.9 76
2017-11-11 14:00:00 16.2 21 Oeste 27 Oeste 0 1019.8 -1.2 78
2017-11-11 13:00:00 15 20 Oeste 28 Oeste 0 1020.4 -0.7 78
2017-11-11 12:00:00 14.7 19 Oeste 24 Oeste 0 1021 -0.1 79
2017-11-11 11:00:00 14.2 20 Oeste 29 Sudoeste 0 1021 0.1 81
2017-11-11 10:00:00 13.3 26 Oeste 31 Oeste 0 1021.1 0 87
2017-11-11 09:00:00 13.1 22 Oeste 27 Oeste 0 1021.1 0 81
2017-11-11 08:00:00 13.1 20 Oeste 27 Oeste 0 1020.9 -0.3 80
2017-11-11 07:00:00 13.2 19 Oeste 27 Oeste 0 1021.1 -0.5 80
2017-11-11 06:00:00 12.9 17 Oeste 22 Sudoeste 0 1021.1 -0.7 78
2017-11-11 05:00:00 12.9 16 Oeste 21 Oeste 0 1021.2 -1.2 81
2017-11-11 04:00:00 13 13 Oeste 21 Oeste 0 1021.6 -1.1 83
2017-11-11 03:00:00 12.9 14 Oeste 23 Oeste 0 1021.8 -1.2 84
2017-11-11 02:00:00 13 9 Oeste 15 Sudoeste 0 1022.4 -0.9 81
2017-11-11 01:00:00 12.9 11 Oeste 30 Noroeste 0 1022.7 -0.9 83
2017-11-11 00:00:00 13.2 19 Noroeste 31 Noroeste 0 1023 -0.7 85
2017-11-10 23:00:00 13.8 10 Noroeste 27 Noroeste 0 1023.3 -0.4 82
2017-11-10 22:00:00 13.5 10 Noroeste 16 Norte 0 1023.6 0.3 83
2017-11-10 21:00:00 13.4 3 Sudoeste 23 Norte 0 1023.7 0.5 85
2017-11-10 20:00:00 13.7 10 Norte 22 Noroeste 0 1023.7 0.6 77
2017-11-10 19:00:00 14.1 11 Noroeste 23 Noroeste 0 1023.3 0.3 80
2017-11-10 18:00:00 14.3 9 Noroeste 23 Norte 0 1023.2 0.2 77
2017-11-10 17:00:00 14.4 11 Noroeste 22 Norte 0 1023.1 -0.2 77
2017-11-10 16:00:00 14.8 9 Norte 21 Norte 0 1023 -0.8 77
2017-11-10 15:00:00 14.5 13 Norte 24 Norte 0 1023 -1 76
2017-11-10 14:00:00 14.5 14 Norte 26 Norte 0 1023.3 -0.5 79
2017-11-10 13:00:00 14.6 6 Norte 27 Nordeste 0 1023.8 -0.1 85
2017-11-10 12:00:00 13.2 24 Norte 42 Norte 0 1024 0.2 90
2017-11-10 11:00:00 14.4 21 Norte 39 Norte 0 1023.8 0.7 85
2017-11-10 10:00:00 14.2 15 Norte 24 Norte 0 1023.9 1.3 83
2017-11-10 09:00:00 13.7 18 Norte 35 Norte 0 1023.8 1.7 88
2017-11-10 08:00:00 14 23 Norte 32 Norte 0.4 1023.1 1.2 86
2017-11-10 07:00:00 13.7 25 Norte 42 Norte 0 1022.6 0.8 90
2017-11-10 06:00:00 13.8 10 Norte 29 Norte 1.2 1022.1 0 90
2017-11-10 05:00:00 13.6 12 Nordeste 34 Norte 0 1021.9 -0.6 87
2017-11-10 04:00:00 14 10 Norte 22 Nordeste 0 1021.8 -1 91
2017-11-10 03:00:00 13.7 6 Noroeste 19 Noroeste 0 1022.1 -0.5 91
2017-11-10 02:00:00 13.7 13 Norte 21 Norte 0 1022.5 -0.1 90
2017-11-10 01:00:00 13.6 9 Norte 16 Norte 0 1022.8 0.3 90
2017-11-10 00:00:00 12.8 14 Oeste 19 Oeste 0 1022.6 0.2 91
2017-11-09 23:00:00 12.9 10 Oeste 15 Oeste 0 1022.6 0.8 90
2017-11-09 22:00:00 12.5 3 Sur 13 Este 0 1022.5 1 90
2017-11-09 21:00:00 12.5 8 Nordeste 18 Este 0 1022.4 1.5 92
2017-11-09 20:00:00 12.3 17 Nordeste 33 Nordeste 0.4 1021.8 1.1 92
2017-11-09 19:00:00 12.8 2 Noroeste 10 Nordeste 0 1021.5 1.3 87
2017-11-09 18:00:00 12.3 5 Nordeste 17 Nordeste 0.4 1020.9 0.7 90
2017-11-09 17:00:00 12.9 3 Norte 12 Norte 0.6 1020.7 0.5 90
2017-11-09 16:00:00 14 3 Oeste 13 Sudeste 0 1020.2 -0.3 87
2017-11-09 15:00:00 13.9 4 Norte 10 Norte 0 1020.2 -0.6 88
2017-11-09 14:00:00 13.4 4 Oeste 11 Oeste 0 1020.2 -0.5 91
2017-11-09 13:00:00 13.4 7 Oeste 13 Oeste 0 1020.5 -0.1 90
2017-11-09 12:00:00 12.9 8 Oeste 13 Sudoeste 0.2 1020.8 0.4 92
2017-11-09 11:00:00 12.1 8 Oeste 21 Oeste 0 1020.7 0.8 92
2017-11-09 10:00:00 11.9 17 Oeste 19 Oeste 0.4 1020.6 0.7 91
2017-11-09 09:00:00 11.4 12 Oeste 15 Oeste 0 1020.4 0.8 90
2017-11-09 08:00:00 11 5 Sudoeste 9 Sur 0 1019.9 0.5 89
2017-11-09 07:00:00 10.6 7 Sur 13 Sudeste 1.4 1019.9 0.4 88
2017-11-09 06:00:00 10.7 9 Sudeste 13 Sudeste 0 1019.6 0.4 86
2017-11-09 05:00:00 10.9 7 Sudeste 12 Este 0.6 1019.4 -0.2 83
2017-11-09 04:00:00 11.6 5 Sur 15 Sudeste 1.6 1019.5 0 78
2017-11-09 03:00:00 11.8 10 Sudeste 21 Este 0 1019.2 -0.4 72
2017-11-09 02:00:00 13 19 Este 26 Nordeste 0 1019.6 -0.2 70
2017-11-09 01:00:00 13 21 Nordeste 30 Nordeste 0 1019.5 -0.2 67
2017-11-09 00:00:00 13.2 13 Nordeste 31 Norte 0 1019.6 0.1 62
2017-11-08 23:00:00 13 14 Nordeste 27 Nordeste 0 1019.8 0.5 67
2017-11-08 22:00:00 13.1 15 Nordeste 33 Nordeste 0 1019.7 0.8 66
2017-11-08 21:00:00 13 17 Norte 37 Nordeste 0 1019.5 1 63
2017-11-08 20:00:00 13.3 21 Norte 41 Nordeste 0 1019.3 1 59
2017-11-08 19:00:00 13 15 Nordeste 38 Nordeste 0 1018.9 0.9 72
2017-11-08 18:00:00 13 24 Nordeste 46 Nordeste 0.2 1018.5 0.3 64
2017-11-08 17:00:00 13.4 22 Norte 40 Norte 0 1018.3 0 61
2017-11-08 16:00:00 12.4 22 Norte 53 Nordeste 0.2 1018 -0.4 66
2017-11-08 15:00:00 14 22 Norte 40 Norte 0 1018.2 -0.6 60
2017-11-08 14:00:00 14.6 10 Noroeste 34 Norte 0 1018.3 -0.4 64
2017-11-08 13:00:00 13.2 15 Noroeste 31 Noroeste 0.2 1018.4 0 62
2017-11-08 12:00:00 13.8 14 Noroeste 42 Norte 0 1018.8 1.1 66
2017-11-08 11:00:00 12.4 13 Noroeste 45 Norte 0 1018.7 1.2 67
2017-11-08 10:00:00 12.4 19 Norte 42 Oeste 0.2 1018.4 1.1 67
2017-11-08 09:00:00 12.7 18 Noroeste 33 Noroeste 0 1017.7 0.6 66
2017-11-08 08:00:00 12.5 13 Norte 31 Noroeste 0 1017.5 0.4 62
2017-11-08 07:00:00 12.6 17 Noroeste 33 Norte 0 1017.3 0.1 59
2017-11-08 06:00:00 12.5 18 Norte 36 Noroeste 0 1017.1 0.1 61
2017-11-08 05:00:00 12 19 Noroeste 40 Noroeste 0 1017.1 0 69
2017-11-08 04:00:00 12.3 15 Norte 33 Norte 0 1017.2 0.3 65
2017-11-08 03:00:00 12.7 19 Norte 35 Norte 0 1017 0.4 58
2017-11-08 02:00:00 12.6 25 Norte 42 Norte 0 1017.1 0.7 54
2017-11-08 01:00:00 12.8 20 Norte 35 Norte 0 1016.9 0.9 57
2017-11-08 00:00:00 12.7 23 Norte 41 Norte 0 1016.6 1.2 56
2017-11-07 23:00:00 12.7 23 Norte 41 Nordeste 0 1016.4 1.5 59
2017-11-07 22:00:00 12.7 23 Norte 45 Norte 0 1016 1.6 71
2017-11-07 21:00:00 12.1 27 Norte 55 Norte 0.8 1015.4 1.7 79
2017-11-07 20:00:00 12.6 29 Norte 49 Norte 0.6 1014.9 1.3 78
2017-11-07 19:00:00 13.1 29 Norte 49 Norte 0 1014.4 1.6 73
2017-11-07 18:00:00 13.9 24 Norte 43 Norte 0 1013.7 1.4 65
2017-11-07 17:00:00 14.2 22 Norte 40 Norte 0 1013.6 1.8 59
2017-11-07 16:00:00 14.1 27 Noroeste 46 Norte 0 1012.8 2.5 66
2017-11-07 15:00:00 13.4 15 Noroeste 34 Norte 0.2 1012.3 1.7 85
2017-11-07 14:00:00 13.3 21 Noroeste 69 Oeste 0.4 1011.8 1.1 82
2017-11-07 13:00:00 13 50 Oeste 62 Oeste 0 1010.3 -0.8 78
2017-11-07 12:00:00 13.9 45 Oeste 51 Sudoeste 0 1010.6 -0.5 69
2017-11-07 11:00:00 13.6 27 Oeste 32 Oeste 0 1010.7 -0.5 66
2017-11-07 10:00:00 13 8 Sudoeste 18 Sudoeste 0 1011.1 0.4 66
2017-11-07 09:00:00 11.6 13 Sur 24 Oeste 0 1011.1 -0.1 65
2017-11-07 08:00:00 10.3 17 Oeste 28 Oeste 0 1011.2 0.1 73
2017-11-07 07:00:00 10.2 11 Sur 15 Sur 0 1010.7 -0.4 64
2017-11-07 06:00:00 10.6 10 Oeste 15 Oeste 0 1011.2 -0.3 69
2017-11-07 05:00:00 10.9 5 Oeste 15 Sudeste 0 1011.1 -0.9 71
2017-11-07 04:00:00 10.3 17 Sudeste 23 Sudeste 0 1011.1 -1.6 68
2017-11-07 03:00:00 10.7 19 Sudeste 24 Sudeste 0 1011.5 -1.8 68
2017-11-07 02:00:00 10.8 19 Sudeste 26 Sudeste 0 1012 -1.9 71
2017-11-07 01:00:00 11.7 17 Sudeste 23 Sudeste 0 1012.7 -1.3 71
2017-11-07 00:00:00 11.7 13 Sudeste 17 Sudeste 0 1013.3 -1 75
2017-11-06 23:00:00 11.9 13 Sur 15 Sur 0 1013.9 -0.8 74
2017-11-06 22:00:00 12.1 11 Este 18 Este 0 1014 -1 73
2017-11-06 21:00:00 12.1 15 Sudeste 17 Este 0 1014.3 -0.8 73
2017-11-06 20:00:00 12.3 14 Sudeste 22 Este 0 1014.7 -0.7 71
2017-11-06 19:00:00 13 12 Sudeste 16 Sudeste 0 1015 -0.5 68
2017-11-06 18:00:00 13.1 10 Sudeste 14 Sudeste 0 1015.1 -0.8 70
2017-11-06 17:00:00 13.7 9 Sudeste 14 Sudeste 0 1015.4 -1.1 68
2017-11-06 16:00:00 13.7 11 Sudeste 30 Este 0 1015.5 -1.6 70
2017-11-06 15:00:00 14.4 12 Este 22 Este 0 1015.9 -2.1 66
2017-11-06 14:00:00 14.3 9 Este 14 Sudeste 0 1016.5 -1.8 67
2017-11-06 13:00:00 15.5 11 Este 15 Este 0 1017.1 -1.2 62
2017-11-06 12:00:00 14.5 4 Oeste 11 Sudoeste 0 1018 -0.4 78
2017-11-06 11:00:00 13.1 10 Oeste 13 Oeste 0 1018.3 0.2 82
2017-11-06 10:00:00 12.7 4 Oeste 7 Oeste 0 1018.3 0.3 82
2017-11-06 09:00:00 11.7 5 Sudoeste 13 Oeste 0 1018.4 0.2 86
2017-11-06 08:00:00 11.6 8 Oeste 11 Oeste 0 1018.1 -0.2 83
2017-11-06 07:00:00 11.4 4 Sudeste 7 Sur 0 1018 -0.3 81
2017-11-06 06:00:00 10.8 3 Sur 10 Oeste 0 1018.2 -0.5 84
2017-11-06 05:00:00 11.4 9 Sudoeste 16 Oeste 0 1018.3 -0.4 84
2017-11-06 04:00:00 11.7 11 Oeste 15 Norte 0 1018.3 -0.9 83
2017-11-06 03:00:00 12.1 6 Norte 27 Nordeste 0.2 1018.7 -0.4 81
2017-11-06 02:00:00 12.4 18 Nordeste 34 Nordeste 0 1018.7 -0.4 81
2017-11-06 01:00:00 12.6 9 Norte 30 Norte 0 1019.2 0.5 76
2017-11-06 00:00:00 12.7 19 Norte 32 Norte 0 1019.1 0.5 76
2017-11-05 23:00:00 12.1 4 Oeste 35 Norte 1 1019.1 0.6 81
2017-11-05 22:00:00 13.5 17 Norte 35 Nordeste 0 1018.7 0.6 71
2017-11-05 21:00:00 13.3 14 Noroeste 29 Noroeste 0 1018.6 0.9 68
2017-11-05 20:00:00 13.5 15 Noroeste 26 Norte 0 1018.5 0.9 69
2017-11-05 19:00:00 13.3 9 Noroeste 29 Noroeste 0 1018.1 0.9 71
2017-11-05 18:00:00 13.3 16 Noroeste 30 Noroeste 0 1017.7 0.2 65
2017-11-05 17:00:00 13.8 15 Noroeste 34 Noroeste 0 1017.6 0.1 67
2017-11-05 16:00:00 14.8 19 Noroeste 35 Noroeste 0.2 1017.2 -0.3 65
2017-11-05 15:00:00 13.7 24 Noroeste 42 Noroeste 0 1017.5 0 68
2017-11-05 14:00:00 15.5 15 Noroeste 30 Noroeste 0 1017.5 0.1 55
2017-11-05 13:00:00 15.4 20 Noroeste 32 Noroeste 0 1017.5 0.5 61
2017-11-05 12:00:00 14 15 Noroeste 32 Noroeste 0 1017.5 1.2 65
2017-11-05 11:00:00 13.7 13 Noroeste 32 Norte 0 1017.4 1.9 64
2017-11-05 10:00:00 13.3 17 Noroeste 31 Noroeste 0 1017 2.2 68
2017-11-05 09:00:00 12.6 14 Noroeste 31 Noroeste 0 1016.3 2 72
2017-11-05 08:00:00 11.8 21 Oeste 37 Oeste 1 1015.5 1.4 79
2017-11-05 07:00:00 13.1 16 Noroeste 33 Noroeste 0 1014.8 0.8 62
2017-11-05 06:00:00 13.1 28 Noroeste 41 Noroeste 0 1014.3 0.6 66
2017-11-05 05:00:00 13.5 22 Noroeste 35 Norte 0 1014.1 0.5 60
2017-11-05 04:00:00 13.4 19 Noroeste 37 Noroeste 0 1014 0.9 59
2017-11-05 03:00:00 13.4 22 Noroeste 35 Norte 0 1013.7 1.4 56
2017-11-05 02:00:00 13 8 Norte 48 Norte 0 1013.6 2 64
2017-11-05 01:00:00 13.5 19 Norte 38 Norte 0 1013.1 2.1 60
2017-11-05 00:00:00 13.8 21 Norte 42 Norte 0 1012.3 2.3 63
2017-11-04 23:00:00 13.9 23 Norte 41 Norte 0 1011.6 2.4 64
2017-11-04 22:00:00 14.1 25 Norte 42 Norte 0 1011 2.7 66
2017-11-04 21:00:00 14.1 24 Norte 46 Norte 0 1010 2.9 70
2017-11-04 20:00:00 13.7 28 Norte 46 Norte 0 1009.2 3.2 79
2017-11-04 19:00:00 13.6 26 Norte 43 Norte 0 1008.3 3.3 79
2017-11-04 18:00:00 14.5 22 Noroeste 44 Norte 0 1007.1 3.5 73
2017-11-04 17:00:00 14.6 30 Norte 49 Norte 0 1006 2.3 71
2017-11-04 16:00:00 14.2 31 Norte 54 Norte 0 1005 1.5 86
2017-11-04 15:00:00 14.7 28 Norte 51 Norte 0 1003.6 0.1 85
2017-11-04 14:00:00 15.8 10 Oeste 21 Oeste 2 1003.7 0.7 86
2017-11-04 13:00:00 17.5 17 Oeste 21 Oeste 0 1003.5 1 84
2017-11-04 12:00:00 15 11 Sudoeste 19 Oeste 0 1003.5 2 88
2017-11-04 11:00:00 14 6 Sudoeste 11 Sudoeste 1.2 1003 2.3 88
2017-11-04 10:00:00 14 6 Oeste 21 Oeste 7.6 1002.5 2.2 88
2017-11-04 09:00:00 14.1 17 Oeste 23 Oeste 0.2 1001.5 1.5 84
2017-11-04 08:00:00 14.5 4 Nordeste 9 Sudeste 0 1000.7 1 81
2017-11-04 07:00:00 14 9 Sudoeste 19 Oeste 0 1000.3 0.9 81
2017-11-04 06:00:00 14.5 3 Sudoeste 7 Oeste 0 1000 0.5 77
2017-11-04 05:00:00 14.1 6 Oeste 9 Noroeste 0 999.7 0.2 78
2017-11-04 04:00:00 14.2 5 Oeste 10 Sur 0 999.4 -0.2 77
2017-11-04 03:00:00 13.5 5 Sur 10 Sudeste 0 999.5 -0.2 79
2017-11-04 02:00:00 14.3 3 Sudoeste 6 Oeste 0 999.5 -0.4 74
2017-11-04 01:00:00 14.6 4 Sudeste 11 Sudoeste 0 999.6 0 78
2017-11-04 00:00:00 14.9 6 Sudoeste 10 Sur 0 999.7 0.2 73
2017-11-03 23:00:00 14.9 7 Sudoeste 19 Sur 0 999.9 0.4 78
2017-11-03 22:00:00 14.8 14 Sudeste 17 Sudeste 0 999.6 0.4 76
2017-11-03 21:00:00 14.8 10 Sudeste 19 Sur 0 999.5 0.5 78
2017-11-03 20:00:00 15 6 Sudeste 13 Sudeste 0 999.5 0.6 77
2017-11-03 19:00:00 14.6 12 Sudeste 17 Sudeste 0 999.2 0.4 78
2017-11-03 18:00:00 15.2 10 Este 13 Sudeste 0 999 0 76
2017-11-03 17:00:00 16.1 10 Este 13 Este 0 998.9 -0.5 76
2017-11-03 16:00:00 17.1 9 Este 11 Este 0 998.8 -0.8 69
2017-11-03 15:00:00 17.2 8 Este 10 Este 0 999 -1.1 67
2017-11-03 14:00:00 17 6 Este 14 Este 0 999.4 -0.5 69
2017-11-03 13:00:00 17.2 3 Nordeste 8 Oeste 0 999.6 -0.4 74
2017-11-03 12:00:00 15.8 4 Oeste 10 Sudoeste 0.2 1000.1 0.3 78
2017-11-03 11:00:00 16.2 4 Este 12 Sur 0 999.9 0.4 75
2017-11-03 10:00:00 15.2 9 Sur 21 Sur 0.4 1000 0.6 76
2017-11-03 09:00:00 14.6 9 Sudeste 15 Sudeste 0.4 999.8 0.2 77
2017-11-03 08:00:00 14.9 8 Sur 18 Sur 0.2 999.5 -0.3 73
2017-11-03 07:00:00 15.1 11 Sudeste 16 Sudeste 0 999.4 -0.9 73
2017-11-03 06:00:00 14.9 15 Sudeste 19 Sudeste 0 999.6 -0.8 71
2017-11-03 05:00:00 15.5 15 Sur 20 Sur 0 999.8 -1 67
2017-11-03 04:00:00 15.2 5 Sur 11 Sur 0 1000.3 -1.1 69
2017-11-03 03:00:00 15.2 5 Noroeste 20 Sur 0 1000.4 -1.2 73
2017-11-03 02:00:00 15.4 10 Sudoeste 36 Sudoeste 0 1000.8 -0.7 70
2017-11-03 01:00:00 15.5 19 Sur 26 Sur 0 1001.4 -0.7 70
2017-11-03 00:00:00 15.9 5 Este 33 Sur 0 1001.6 -0.2 71
2017-11-02 23:00:00 16.3 24 Sur 35 Sur 0 1001.5 -0.3 67
2017-11-02 22:00:00 16.1 6 Sudeste 22 Sur 0 1002.1 0.6 71
2017-11-02 21:00:00 16.4 17 Sur 25 Sur 0 1001.8 0.4 69
2017-11-02 20:00:00 16.8 18 Sur 26 Sur 0 1001.8 0.4 69
2017-11-02 19:00:00 16.7 13 Sudeste 21 Sudeste 0 1001.5 0 69
2017-11-02 18:00:00 16.4 14 Sudeste 16 Sudeste 0 1001.4 0.3 72
2017-11-02 17:00:00 17.5 6 Sudoeste 35 Oeste 0 1001.4 0.1 67
2017-11-02 16:00:00 17 15 Oeste 22 Sudoeste 0 1001.5 -0.9 76
2017-11-02 15:00:00 16.3 15 Sudeste 36 Sudeste 0 1001.1 -2.7 85
2017-11-02 14:00:00 15.1 26 Sudeste 39 Sudeste 0.2 1001.3 -2 86
2017-11-02 13:00:00 15.1 14 Sudeste 24 Oeste 0 1002.4 -0.3 82
2017-11-02 12:00:00 14.8 19 Oeste 46 Oeste 1.2 1003.8 1.2 86
2017-11-02 11:00:00 16.3 14 Sur 27 Sudeste 0 1003.3 1.1 72
2017-11-02 10:00:00 15.8 21 Sudeste 24 Sudeste 0 1002.7 0.4 75
2017-11-02 09:00:00 15.1 22 Sudeste 24 Sudeste 0 1002.6 -0.1 80
2017-11-02 08:00:00 14.9 14 Sudeste 19 Sur 0 1002.2 -0.7 80
2017-11-02 07:00:00 14.4 5 Sudoeste 20 Oeste 0.6 1002.3 -0.6 84
2017-11-02 06:00:00 14.7 20 Oeste 24 Oeste 0.6 1002.7 -0.1 84
2017-11-02 05:00:00 15.5 12 Oeste 15 Oeste 0.4 1002.9 0.1 81
2017-11-02 04:00:00 16.6 11 Oeste 22 Oeste 0 1002.9 -0.2 73
2017-11-02 03:00:00 17.2 9 Oeste 19 Oeste 0 1002.8 -0.4 61
2017-11-02 02:00:00 17.3 4 Oeste 17 Sudoeste 0 1002.8 -0.5 62
2017-11-02 01:00:00 17.7 5 Sudoeste 10 Sudeste 0 1003.1 -0.5 58
2017-11-02 00:00:00 18.1 7 Sudeste 15 Sudeste 0 1003.2 -0.6 56
2017-11-01 23:00:00 18.4 13 Sudeste 20 Sudeste 0 1003.3 -0.6 54
2017-11-01 22:00:00 18.5 15 Sudeste 23 Sudeste 0 1003.6 -0.4 53
2017-11-01 21:00:00 19 14 Sudeste 17 Sudeste 0 1003.8 0 53
2017-11-01 20:00:00 19.4 11 Sudeste 15 Sudeste 0 1003.9 0.1 50
2017-11-01 19:00:00 19 11 Sur 17 Sudeste 0 1004 0.2 52
2017-11-01 18:00:00 18.8 10 Sudeste 17 Sur 0 1003.8 -0.1 52
2017-11-01 17:00:00 19.3 11 Sur 17 Sudoeste 0 1003.8 -0.4 52
2017-11-01 16:00:00 20.2 13 Sudoeste 20 Sudoeste 0 1003.8 -1 49
2017-11-01 15:00:00 19.5 6 Sudoeste 24 Sudoeste 0 1003.9 -1.3 51
2017-11-01 14:00:00 19.5 12 Sur 21 Sudoeste 0 1004.2 -1.1 49
2017-11-01 13:00:00 17.8 8 Este 12 Nordeste 0 1004.8 -0.4 58
2017-11-01 12:00:00 16.7 10 Nordeste 19 Noroeste 0 1005.2 0.5 63
2017-11-01 11:00:00 17.6 8 Oeste 19 Oeste 0 1005.3 1.3 48
2017-11-01 10:00:00 16.5 8 Oeste 23 Sudoeste 0 1005.2 1 50
2017-11-01 09:00:00 16.4 11 Sudoeste 22 Oeste 0 1004.7 0.6 49
2017-11-01 08:00:00 16.4 8 Sudoeste 16 Sudoeste 0 1004 -0.3 46
2017-11-01 07:00:00 16 6 Sudoeste 10 Sur 0 1004.2 -0.5 47
2017-11-01 06:00:00 16.1 8 Sudoeste 16 Sur 0 1004.1 -0.7 46
2017-11-01 05:00:00 15.5 10 Sudoeste 16 Sur 0 1004.3 -0.8 49
2017-11-01 04:00:00 15.5 2 Este 13 Sur 0 1004.7 -0.8 49
2017-11-01 03:00:00 15.5 10 Sur 23 Sur 0 1004.8 -0.9 48
2017-11-01 02:00:00 15.6 15 Sudoeste 21 Sur 0 1005.1 -1.1 48
2017-11-01 01:00:00 15.4 17 Sur 20 Sur 0 1005.5 -0.9 54
2017-11-01 00:00:00 14.6 10 Sur 17 Sur 0 1005.7 -0.8 61
2017-10-31 23:00:00 13.7 6 Sudoeste 21 Sudeste 0 1006.2 -0.6 68
2017-10-31 22:00:00 13.2 13 Sudeste 26 Sudeste 0 1006.4 -0.6 71
2017-10-31 21:00:00 13.2 20 Sudeste 29 Sudeste 0 1006.5 -0.6 71
2017-10-31 20:00:00 13.7 24 Sudeste 33 Sudeste 0 1006.8 0 69
2017-10-31 19:00:00 13.5 21 Sudeste 29 Sudeste 0 1007 -0.1 71
2017-10-31 18:00:00 14 24 Sudeste 39 Este 0 1007.1 -0.4 71
2017-10-31 17:00:00 15 31 Sudeste 40 Sudeste 0 1006.8 -1.4 66
2017-10-31 16:00:00 14.8 31 Este 41 Este 0 1007.1 -1.5 66
2017-10-31 15:00:00 14.9 28 Este 37 Este 0 1007.5 -1.7 64
2017-10-31 14:00:00 14.9 28 Sudeste 44 Sudeste 0 1008.2 -1.1 59
2017-10-31 13:00:00 15.2 37 Sudeste 53 Este 0 1008.6 -0.7 59
2017-10-31 12:00:00 14.9 37 Sudeste 60 Este 0 1009.2 -0.3 60
2017-10-31 11:00:00 14.7 48 Sudeste 62 Sudeste 0 1009.3 0 61
2017-10-31 10:00:00 14.2 48 Sudeste 64 Este 0 1009.3 -0.4 61
2017-10-31 09:00:00 14.1 50 Sudeste 63 Sudeste 0 1009.5 -0.4 64
2017-10-31 08:00:00 13.5 41 Sudeste 54 Sudeste 0 1009.3 -0.6 67
2017-10-31 07:00:00 13.3 32 Sudeste 50 Sudeste 0 1009.7 -0.5 65
2017-10-31 06:00:00 13.7 39 Sudeste 61 Sudeste 0 1009.9 -0.5 66
2017-10-31 05:00:00 14.4 43 Este 64 Este 0 1009.9 -0.5 66
2017-10-31 04:00:00 14.4 43 Este 69 Este 0 1010.2 -0.9 65
2017-10-31 03:00:00 14.4 44 Este 71 Este 0 1010.4 -1.4 64
2017-10-31 02:00:00 14.5 52 Este 69 Este 0 1010.4 -1.3 64
2017-10-31 01:00:00 14.5 49 Este 69 Este 0 1011.1 -0.5 67
2017-10-31 00:00:00 14.4 46 Este 67 Este 0 1011.8 0.1 68
2017-10-30 23:00:00 14.8 50 Este 75 Este 0 1011.7 0.1 70
2017-10-30 22:00:00 15.1 55 Este 76 Este 0 1011.6 0 72
2017-10-30 21:00:00 15.3 50 Este 69 Este 0 1011.7 0.7 74
2017-10-30 20:00:00 15.5 52 Este 69 Este 0 1011.6 0.5 73
2017-10-30 19:00:00 15.4 48 Este 68 Este 0 1011.6 0.3 75
2017-10-30 18:00:00 15.9 53 Este 67 Este 0 1011 -0.8 75
2017-10-30 17:00:00 16.3 50 Este 67 Este 0 1011.1 -1.6 73
2017-10-30 16:00:00 16.7 53 Este 64 Este 0 1011.3 -1.8 70
2017-10-30 15:00:00 16.8 47 Este 56 Nordeste 0 1011.8 -1.9 67
2017-10-30 14:00:00 16.4 45 Nordeste 54 Nordeste 0 1012.7 -1.2 69
2017-10-30 13:00:00 16.3 44 Este 53 Nordeste 0 1013.1 -0.9 67
2017-10-30 12:00:00 16.2 43 Nordeste 53 Este 0 1013.7 -0.1 71
2017-10-30 11:00:00 15.8 36 Nordeste 47 Este 0 1013.9 0.4 75
2017-10-30 10:00:00 15.3 40 Nordeste 58 Este 0 1014 0.5 74
2017-10-30 09:00:00 14.7 46 Este 54 Este 0 1013.8 0.1 79
2017-10-30 08:00:00 14.7 44 Este 53 Este 0 1013.5 -0.5 82
2017-10-30 07:00:00 14.8 27 Nordeste 48 Nordeste 0.2 1013.5 -0.8 87
2017-10-30 06:00:00 15.1 32 Nordeste 47 Nordeste 0 1013.7 -0.9 82
2017-10-30 05:00:00 14.3 25 Este 42 Este 0.4 1014 -0.7 91
2017-10-30 04:00:00 14.4 18 Este 31 Este 0 1014.3 -0.7 90
2017-10-30 03:00:00 14.5 29 Este 45 Nordeste 0 1014.6 -0.5 89
2017-10-30 02:00:00 15.4 25 Nordeste 41 Nordeste 0 1014.7 -0.6 78
2017-10-30 01:00:00 15.3 33 Este 44 Nordeste 0 1015 -0.4 80
2017-10-30 00:00:00 15.6 29 Nordeste 46 Nordeste 0 1015.1 -0.5 79
2017-10-29 23:00:00 15.9 29 Este 50 Nordeste 0 1015.3 -0.3 77
2017-10-29 22:00:00 15.8 45 Nordeste 52 Este 0 1015.4 -0.1 75
2017-10-29 21:00:00 15.2 39 Este 50 Nordeste 0 1015.6 0 82
2017-10-29 20:00:00 15.2 41 Nordeste 51 Nordeste 0 1015.6 -0.3 83
2017-10-29 19:00:00 15.4 33 Nordeste 49 Nordeste 0 1015.5 -0.5 80
2017-10-29 18:00:00 15.8 34 Nordeste 48 Nordeste 0 1015.6 -0.6 80
2017-10-29 17:00:00 16.2 35 Este 45 Este 0 1015.9 -0.6 80
2017-10-29 16:00:00 16.4 38 Este 46 Nordeste 0 1016 -1.2 78
2017-10-29 15:00:00 16.8 33 Este 45 Nordeste 0 1016.2 -1.4 72
2017-10-29 14:00:00 16.5 35 Este 46 Este 0 1016.5 -0.9 76
2017-10-29 13:00:00 16.5 36 Nordeste 46 Nordeste 0 1017.2 -0.1 79
2017-10-29 12:00:00 16.7 36 Este 47 Este 0 1017.6 0.7 78
2017-10-29 11:00:00 16.5 35 Este 43 Este 0 1017.4 1 80
2017-10-29 10:00:00 16.4 18 Este 23 Este 0 1017.3 0.9 82
2017-10-29 09:00:00 15.9 18 Este 24 Este 0 1016.9 0.5 86
2017-10-29 08:00:00 16 18 Este 29 Sudeste 0 1016.4 0.1 86
2017-10-29 07:00:00 16.2 23 Este 41 Este 0 1016.4 -0.1 85
2017-10-29 06:00:00 16.2 32 Este 42 Este 0 1016.4 -0.5 84
2017-10-29 05:00:00 16.1 30 Este 36 Este 0 1016.3 -0.9 83
2017-10-29 04:00:00 16 21 Este 38 Este 0 1016.5 -1.1 81
2017-10-29 03:00:00 16.2 28 Este 41 Este 0 1016.9 -0.6 81
2017-10-29 02:00:00 16.1 32 Este 40 Este 0 1017.2 -0.4 84
2017-10-29 01:00:00 16.1 26 Este 39 Este 0 1017.5 -0.3 86
2017-10-29 00:00:00 15.9 27 Este 38 Este 0 1017.6 -0.7 86
2017-10-28 23:00:00 16 28 Este 43 Sudeste 0 1017.7 -0.6 86
2017-10-28 22:00:00 15.9 26 Este 37 Este 0 1017.8 0 86
2017-10-28 21:00:00 16.1 26 Este 35 Este 0 1018.3 0.5 86
2017-10-28 20:00:00 16.2 26 Este 36 Este 0 1018.3 0.3 84
2017-10-28 19:00:00 16.6 30 Este 39 Este 0 1017.8 -0.1 82
2017-10-28 18:00:00 17 29 Este 36 Este 0 1017.8 -0.5 78
2017-10-28 17:00:00 17.9 25 Este 40 Este 0 1018 -0.7 76
2017-10-28 16:00:00 18.3 26 Este 41 Este 0 1017.9 -1.6 75
2017-10-28 15:00:00 17.6 31 Este 44 Este 0 1018.3 -1.1 79
2017-10-28 14:00:00 17.4 33 Este 47 Este 0 1018.7 -0.8 80
2017-10-28 13:00:00 17.8 28 Este 44 Este 0 1019.5 0.1 78
2017-10-28 12:00:00 17.8 28 Este 38 Este 0 1019.4 0 80
2017-10-28 11:00:00 16.9 30 Este 41 Este 0 1019.5 0.3 82
2017-10-28 10:00:00 16.3 30 Este 42 Este 0 1019.4 -0.1 84
2017-10-28 09:00:00 16.2 31 Este 46 Este 0 1019.4 -0.3 86
2017-10-28 08:00:00 16.1 36 Este 49 Este 0 1019.2 -1 84
2017-10-28 07:00:00 16.1 33 Este 45 Este 0 1019.5 -1.2 86
2017-10-28 06:00:00 16.2 32 Este 46 Este 0 1019.7 -1.1 86
2017-10-28 05:00:00 16.6 28 Este 40 Este 0 1020.2 -0.8 85
2017-10-28 04:00:00 16.6 27 Este 39 Este 0 1020.7 -0.4 85
2017-10-28 03:00:00 16.7 31 Este 39 Este 0 1020.8 -0.5 87
2017-10-28 02:00:00 16.8 32 Este 39 Este 0 1021 -0.7 84
2017-10-28 01:00:00 17 33 Sudeste 44 Sudeste 0 1021.1 -0.5 81
2017-10-28 00:00:00 16.9 34 Sudeste 45 Sudeste 0 1021.3 -0.1 81
2017-10-27 23:00:00 16.8 30 Este 44 Este 0 1021.7 0.6 83
2017-10-27 22:00:00 16.8 26 Este 46 Este 0 1021.6 0.1 86
2017-10-27 21:00:00 17.1 35 Este 46 Sudeste 0 1021.4 0.2 86
2017-10-27 20:00:00 17.2 38 Este 45 Este 0 1021.1 0.2 86
2017-10-27 19:00:00 17.6 27 Este 38 Este 0 1021.5 0.7 86
2017-10-27 18:00:00 18.1 31 Este 40 Sudeste 0 1021.2 0.1 83
2017-10-27 17:00:00 18.6 34 Este 42 Sudeste 0 1020.9 -0.4 81
2017-10-27 16:00:00 18.6 30 Este 35 Sudeste 0 1020.8 -0.6 80
2017-10-27 15:00:00 18.9 26 Sudeste 32 Este 0 1021.1 -0.2 75
2017-10-27 14:00:00 18.7 28 Este 32 Este 0 1021.3 0.4 75
2017-10-27 13:00:00 18.5 27 Este 33 Este 0 1021.4 1.2 73
2017-10-27 12:00:00 18.1 29 Este 32 Este 0 1021.3 2 72
2017-10-27 11:00:00 17.2 29 Este 33 Este 0 1020.9 2 75
2017-10-27 10:00:00 17.3 21 Sudeste 32 Sudeste 0 1020.2 1.6 83
2017-10-27 09:00:00 16.4 26 Sudeste 32 Este 0 1019.3 1 79
2017-10-27 08:00:00 17 25 Sudeste 32 Sudeste 0 1018.9 0.7 70
2017-10-27 07:00:00 17.7 15 Sudeste 21 Sudeste 0 1018.6 0.4 63
2017-10-27 06:00:00 17.2 11 Sudeste 23 Este 0 1018.3 0.1 67
2017-10-27 05:00:00 17.3 19 Este 28 Sudeste 0 1018.2 0 69
2017-10-27 04:00:00 17.7 21 Sudeste 34 Sudeste 0 1018.2 -0.1 66
2017-10-27 03:00:00 18.4 27 Sudeste 36 Sudeste 0 1018.2 -0.1 62
2017-10-27 02:00:00 18.5 28 Sudeste 36 Sudeste 0 1018.2 0.3 61
2017-10-27 01:00:00 18.6 28 Sudeste 36 Sudeste 0 1018.3 0.8 61
2017-10-27 00:00:00 18.6 28 Sudeste 33 Sudeste 0 1018.3 1.1 60
2017-10-26 23:00:00 18.6 26 Sudeste 35 Sudeste 0 1017.9 1.4 60
2017-10-26 22:00:00 18.8 26 Sudeste 34 Sudeste 0 1017.5 1.6 59
2017-10-26 21:00:00 18.6 25 Sudeste 33 Sudeste 0 1017.2 1.7 62
2017-10-26 20:00:00 18.3 24 Sudeste 32 Sudeste 0 1016.5 1.3 65
2017-10-26 19:00:00 18.6 21 Sudeste 26 Sudeste 0 1015.9 1 68
2017-10-26 18:00:00 19.7 17 Sudeste 21 Este 0 1015.5 0.7 68
2017-10-26 17:00:00 22.5 5 Oeste 12 Noroeste 0 1015.2 0.1 54
2017-10-26 16:00:00 21.8 8 Oeste 12 Noroeste 0 1014.9 0 56
2017-10-26 15:00:00 21.6 7 Oeste 12 Oeste 0 1014.8 0 56
2017-10-26 14:00:00 21 7 Noroeste 12 Noroeste 0 1015.1 0.5 57
2017-10-26 13:00:00 20.6 9 Oeste 15 Oeste 0 1014.9 1 58
2017-10-26 12:00:00 20.5 13 Oeste 16 Oeste 0 1014.8 1.7 57
2017-10-26 11:00:00 19.1 12 Sudoeste 15 Sudoeste 0 1014.6 2.1 59
2017-10-26 10:00:00 18.1 8 Sudoeste 17 Oeste 0 1013.9 2.2 63
2017-10-26 09:00:00 16.4 5 Sudeste 13 Este 0 1013.1 1.5 68
2017-10-26 08:00:00 17.2 6 Oeste 32 Sur 0 1012.5 1.1 67
2017-10-26 07:00:00 17 24 Sur 37 Sudoeste 0 1011.7 0.9 63
2017-10-26 06:00:00 18.1 22 Sudoeste 33 Sudoeste 0 1011.6 0.9 60
2017-10-26 05:00:00 17 23 Oeste 46 Sudoeste 0 1011.4 0.8 72
2017-10-26 04:00:00 18 37 Oeste 48 Oeste 0 1010.8 0.5 66
2017-10-26 03:00:00 17.5 24 Oeste 42 Oeste 0 1010.7 0.8 62
2017-10-26 02:00:00 17.4 32 Oeste 40 Oeste 0 1010.6 0.7 62
2017-10-26 01:00:00 16.4 22 Oeste 35 Oeste 0 1010.3 0.7 70
2017-10-26 00:00:00 19.8 4 Noroeste 8 Noroeste 0 1009.9 0.7 52
2017-10-25 23:00:00 19 6 Noroeste 11 Sudoeste 0 1009.9 0.6 61
2017-10-25 22:00:00 19.2 11 Sur 27 Sudeste 0 1009.6 0.4 61
2017-10-25 21:00:00 18.9 24 Sudeste 27 Sudeste 0 1009.2 0.2 62
2017-10-25 20:00:00 17.3 19 Sudeste 29 Sudeste 0 1009.3 0.3 74
2017-10-25 19:00:00 18 25 Sudeste 31 Sudeste 0 1009.2 0.2 68
2017-10-25 18:00:00 18.8 22 Sudeste 32 Este 0 1009 -0.6 67
2017-10-25 17:00:00 18.7 26 Sudeste 31 Sudeste 0 1009 -1 66
2017-10-25 16:00:00 18.9 18 Sudeste 24 Sudeste 0 1009 -1.5 63
2017-10-25 15:00:00 19.1 14 Sudeste 25 Sudeste 0 1009.6 -1 60
2017-10-25 14:00:00 18.5 21 Sudeste 30 Este 0 1010 -0.8 62
2017-10-25 13:00:00 18.9 24 Este 29 Este 0 1010.5 -0.3 61
2017-10-25 12:00:00 19.2 17 Sudeste 27 Sudeste 0 1010.6 0.2 50
2017-10-25 11:00:00 18 18 Sudeste 30 Sudeste 0 1010.8 0.3 67
2017-10-25 10:00:00 16.6 15 Sudeste 23 Este 0 1010.8 0.4 72
2017-10-25 09:00:00 14.7 15 Este 19 Este 0 1010.4 0.4 71
2017-10-25 08:00:00 14.6 3 Sur 17 Oeste 0 1010.5 0.2 79
2017-10-25 07:00:00 13.9 13 Oeste 16 Oeste 0 1010.4 0 76
2017-10-25 06:00:00 15.6 4 Oeste 6 Oeste 0 1010 -0.8 58
2017-10-25 05:00:00 15.5 4 Oeste 11 Sudeste 0 1010.3 -0.7 58
2017-10-25 04:00:00 16.3 8 Sur 28 Sur 0 1010.4 -1.3 53
2017-10-25 03:00:00 17 11 Este 21 Sudeste 0 1010.8 -1 51
2017-10-25 02:00:00 15.7 19 Sudeste 22 Sudeste 0 1011 -0.6 59
2017-10-25 01:00:00 16.5 7 Sudoeste 10 Oeste 0 1011.7 0.1 57
2017-10-25 00:00:00 15.4 8 Oeste 11 Sur 0 1011.8 0.3 69